createdAt,value
2018-11-05T00:03:34.396Z,7.97
2018-11-05T00:08:37.585Z,7.60
2018-11-05T00:13:40.766Z,8.27
2018-11-05T00:18:43.953Z,7.40
2018-11-05T00:23:47.148Z,7.90
2018-11-05T00:28:50.344Z,8.17
2018-11-05T00:33:53.525Z,7.23
2018-11-05T00:38:56.712Z,6.90
2018-11-05T00:43:59.866Z,6.20
2018-11-05T00:49:03.308Z,6.70
2018-11-05T00:54:06.532Z,7.90
2018-11-05T00:59:09.739Z,6.50
2018-11-05T01:04:12.921Z,6.90
2018-11-05T01:09:16.116Z,7.33
2018-11-05T01:14:19.283Z,7.10
2018-11-05T01:19:22.452Z,6.13
2018-11-05T01:24:25.623Z,6.93
2018-11-05T01:29:28.788Z,6.53
2018-11-05T01:34:31.939Z,7.17
2018-11-05T01:39:35.139Z,7.17
2018-11-05T01:44:38.427Z,7.63
2018-11-05T01:49:41.635Z,6.57
2018-11-05T01:54:44.911Z,6.20
2018-11-05T01:59:48.225Z,6.53
2018-11-05T02:04:51.473Z,6.63
2018-11-05T02:09:54.696Z,5.60
2018-11-05T02:14:57.955Z,5.87
2018-11-05T02:20:01.147Z,6.33
2018-11-05T02:25:04.689Z,5.57
2018-11-05T02:30:11.972Z,6.00
2018-11-05T02:35:16.120Z,6.90
2018-11-05T02:40:20.588Z,6.23
2018-11-05T02:45:23.768Z,6.80
2018-11-05T02:50:26.952Z,6.57
2018-11-05T02:55:30.155Z,5.13
2018-11-05T03:00:33.412Z,6.30
2018-11-05T03:05:36.620Z,5.40
2018-11-05T03:10:39.816Z,5.63
2018-11-05T03:15:43.047Z,6.30
2018-11-05T03:20:46.272Z,6.10
2018-11-05T03:25:49.497Z,6.40
2018-11-05T03:30:52.716Z,5.57
2018-11-05T03:35:55.977Z,5.80
2018-11-05T03:40:59.180Z,6.73
2018-11-05T03:46:02.378Z,6.80
2018-11-05T03:51:05.585Z,5.97
2018-11-05T03:56:08.891Z,5.43
2018-11-05T04:01:12.022Z,5.77
2018-11-05T04:06:15.272Z,5.27
2018-11-05T04:11:18.436Z,6.17
2018-11-05T04:16:21.641Z,5.40
2018-11-05T04:21:29.062Z,5.60
2018-11-05T04:26:32.279Z,5.90
2018-11-05T04:31:35.479Z,4.23
2018-11-05T04:36:38.683Z,5.23
2018-11-05T04:41:41.915Z,5.17
2018-11-05T04:46:45.112Z,5.83
2018-11-05T04:51:48.312Z,5.33
2018-11-05T04:56:51.499Z,5.10
2018-11-05T05:01:54.723Z,5.07
2018-11-05T05:06:57.903Z,5.30
2018-11-05T05:12:01.094Z,5.97
2018-11-05T05:17:04.306Z,5.13
2018-11-05T05:22:07.488Z,4.83
2018-11-05T05:27:10.721Z,6.50
2018-11-05T05:32:13.936Z,5.37
2018-11-05T05:37:17.150Z,5.50
2018-11-05T05:42:20.380Z,4.90
2018-11-05T05:47:23.592Z,5.10
2018-11-05T05:52:26.844Z,6.07
2018-11-05T05:57:30.348Z,4.93
2018-11-05T06:02:33.577Z,5.03
2018-11-05T06:07:37.168Z,5.30
2018-11-05T06:12:40.368Z,5.03
2018-11-05T06:17:43.564Z,4.90
2018-11-05T06:22:47.464Z,5.20
2018-11-05T06:27:50.669Z,5.27
2018-11-05T06:32:53.897Z,4.70
2018-11-05T06:37:57.102Z,5.20
2018-11-05T06:43:00.320Z,5.20
2018-11-05T06:48:03.528Z,5.30
2018-11-05T06:53:06.763Z,5.00
2018-11-05T06:58:09.968Z,4.87
2018-11-05T07:03:13.182Z,4.20
2018-11-05T07:08:16.416Z,4.20
2018-11-05T07:13:19.634Z,4.73
2018-11-05T07:18:22.929Z,5.20
2018-11-05T07:23:26.061Z,5.33
2018-11-05T07:28:29.281Z,4.70
2018-11-05T07:33:32.732Z,4.53
2018-11-05T07:38:35.734Z,4.83
2018-11-05T07:43:38.944Z,5.93
2018-11-05T07:48:42.176Z,5.43
2018-11-05T07:53:45.422Z,4.80
2018-11-05T07:58:48.616Z,4.90
2018-11-05T08:03:51.847Z,4.90
2018-11-05T08:08:55.356Z,4.73
2018-11-05T08:13:58.575Z,5.23
2018-11-05T08:19:01.820Z,5.63
2018-11-05T08:24:05.453Z,5.00
2018-11-05T08:29:08.644Z,5.03
2018-11-05T08:34:11.897Z,5.97
2018-11-05T08:39:15.103Z,5.80
2018-11-05T08:44:18.328Z,4.37
2018-11-05T08:49:21.549Z,5.90
2018-11-05T08:54:24.847Z,5.30
2018-11-05T08:59:28.048Z,5.40
2018-11-05T09:04:31.302Z,4.80
2018-11-05T09:09:34.504Z,4.90
2018-11-05T09:14:37.717Z,5.23
2018-11-05T09:19:40.956Z,5.20
2018-11-05T09:24:44.180Z,6.07
2018-11-05T09:29:47.396Z,5.60
2018-11-05T09:34:50.616Z,4.80
2018-11-05T09:39:53.828Z,4.90
2018-11-05T09:44:57.063Z,5.80
2018-11-05T09:50:00.287Z,3.80
2018-11-05T09:55:03.545Z,5.40
2018-11-05T10:00:10.201Z,3.70
2018-11-05T10:05:14.085Z,5.07
2018-11-05T10:10:17.926Z,4.87
2018-11-05T10:15:21.088Z,5.13
2018-11-05T10:20:25.138Z,4.63
2018-11-05T10:25:28.339Z,4.80
2018-11-05T10:30:31.788Z,5.17
2018-11-05T10:35:40.392Z,5.43
2018-11-05T10:40:43.618Z,6.20
2018-11-05T10:45:46.880Z,5.07
2018-11-05T10:50:50.093Z,4.87
2018-11-05T10:55:53.289Z,4.97
2018-11-05T11:01:02.023Z,8.17
2018-11-05T11:06:06.292Z,6.37
2018-11-05T11:11:09.499Z,6.47
2018-11-05T11:16:12.691Z,6.90
2018-11-05T11:21:15.912Z,6.87
2018-11-05T11:26:19.154Z,5.47
2018-11-05T11:31:22.392Z,4.97
2018-11-05T11:36:25.779Z,7.40
2018-11-05T11:41:28.981Z,4.97
2018-11-05T11:46:32.277Z,4.63
2018-11-05T11:51:35.484Z,5.60
2018-11-05T11:56:38.687Z,9.27
2018-11-05T12:01:47.352Z,8.93
2018-11-05T12:06:51.608Z,6.63
2018-11-05T12:11:54.809Z,5.80
2018-11-05T12:16:58.001Z,7.50
2018-11-05T12:22:01.248Z,6.60
2018-11-05T12:27:04.556Z,7.73
2018-11-05T12:32:07.800Z,5.43
2018-11-05T12:37:11.020Z,7.50
2018-11-05T12:42:14.283Z,8.50
2018-11-05T12:47:17.544Z,7.40
2018-11-05T12:52:20.782Z,7.50
2018-11-05T12:57:24.023Z,7.63
2018-11-05T13:02:27.308Z,7.60
2018-11-05T13:07:30.565Z,7.60
2018-11-05T13:12:33.792Z,7.43
2018-11-05T13:17:37.636Z,8.90
2018-11-05T13:22:40.938Z,8.07
2018-11-05T13:27:45.316Z,10.93
2018-11-05T13:32:48.523Z,9.30
2018-11-05T13:37:52.262Z,8.77
2018-11-05T13:42:55.116Z,8.47
2018-11-05T13:47:58.821Z,9.73
2018-11-05T13:53:01.552Z,9.73
2018-11-05T13:58:05.124Z,8.63
2018-11-05T14:03:08.365Z,5.97
2018-11-05T14:08:11.593Z,8.37
2018-11-05T14:13:14.808Z,8.30
2018-11-05T14:18:18.095Z,9.57
2018-11-05T14:23:21.248Z,6.43
2018-11-05T14:28:24.684Z,8.63
2018-11-05T14:33:27.712Z,9.77
2018-11-05T14:38:30.941Z,8.97
2018-11-05T14:43:34.232Z,9.67
2018-11-05T14:48:37.470Z,7.97
2018-11-05T14:53:40.720Z,7.53
2018-11-05T14:58:43.944Z,8.57
2018-11-05T15:03:47.174Z,9.90
2018-11-05T15:08:50.425Z,8.20
2018-11-05T15:13:53.649Z,13.60
2018-11-05T15:18:57.155Z,7.17
2018-11-05T15:24:00.123Z,7.93
2018-11-05T15:29:03.372Z,7.57
2018-11-05T15:34:06.657Z,7.20
2018-11-05T15:39:09.936Z,7.40
2018-11-05T15:44:13.168Z,6.27
2018-11-05T15:49:16.436Z,6.73
2018-11-05T15:54:19.708Z,5.90
2018-11-05T15:59:22.896Z,5.10
2018-11-05T16:04:27.051Z,5.47
2018-11-05T16:09:30.271Z,5.30
2018-11-05T16:14:33.581Z,4.93
2018-11-05T16:19:36.792Z,4.73
2018-11-05T16:24:40.008Z,5.17
2018-11-05T16:29:43.220Z,5.87
2018-11-05T16:34:46.458Z,5.60
2018-11-05T16:39:49.797Z,6.33
2018-11-05T16:44:52.875Z,6.30
2018-11-05T16:49:56.078Z,8.00
2018-11-05T16:54:59.267Z,7.70
2018-11-05T17:00:02.501Z,7.93
2018-11-05T17:05:05.700Z,8.13
2018-11-05T17:10:10.275Z,10.60
2018-11-05T17:15:15.551Z,12.87
2018-11-05T17:20:19.815Z,9.20
2018-11-05T17:25:23.047Z,9.13
2018-11-05T17:30:26.241Z,10.07
2018-11-05T17:35:29.468Z,8.67
2018-11-05T17:40:32.677Z,9.43
2018-11-05T17:45:35.912Z,10.00
2018-11-05T17:50:39.137Z,34.90
2018-11-05T17:55:42.333Z,16.87
2018-11-05T18:00:45.550Z,13.03
2018-11-05T18:05:48.837Z,12.80
2018-11-05T18:10:52.689Z,12.50
2018-11-05T18:15:55.890Z,13.50
2018-11-05T18:20:59.076Z,10.33
2018-11-05T18:26:02.307Z,10.70
2018-11-05T18:31:05.851Z,14.00
2018-11-05T18:36:09.015Z,12.07
2018-11-05T18:41:12.273Z,10.60
2018-11-05T18:46:16.172Z,10.67
2018-11-05T18:51:19.402Z,9.73
2018-11-05T18:56:22.787Z,8.93
2018-11-05T19:01:25.953Z,8.50
2018-11-05T19:06:29.140Z,11.27
2018-11-05T19:11:32.328Z,11.33
2018-11-05T19:16:35.582Z,9.07
2018-11-05T19:21:38.784Z,9.30
2018-11-05T19:26:41.989Z,9.87
2018-11-05T19:31:46.192Z,9.93
2018-11-05T19:36:49.520Z,10.03
2018-11-05T19:41:52.781Z,9.83
2018-11-05T19:46:55.917Z,10.77
2018-11-05T19:51:59.132Z,10.57
2018-11-05T19:57:02.784Z,9.73
2018-11-05T20:02:06.969Z,12.20
2018-11-05T20:07:10.183Z,11.50
2018-11-05T20:12:13.427Z,11.80
2018-11-05T20:17:16.617Z,10.80
2018-11-05T20:22:19.926Z,10.60
2018-11-05T20:27:23.044Z,10.00
2018-11-05T20:32:26.951Z,9.20
2018-11-05T20:37:29.568Z,9.90
2018-11-05T20:42:32.805Z,9.83
2018-11-05T20:47:36.047Z,9.70
2018-11-05T20:52:39.585Z,9.20
2018-11-05T20:57:43.088Z,8.53
2018-11-05T21:02:46.273Z,9.50
2018-11-05T21:07:49.479Z,10.10
2018-11-05T21:12:52.677Z,9.73
2018-11-05T21:17:55.990Z,10.07
2018-11-05T21:22:59.202Z,9.27
2018-11-05T21:28:02.371Z,10.03
2018-11-05T21:33:05.748Z,11.00
2018-11-05T21:38:08.874Z,9.00
2018-11-05T21:43:12.076Z,11.17
2018-11-05T21:48:16.363Z,10.43
2018-11-05T21:53:19.604Z,11.20
2018-11-05T21:58:22.792Z,10.00
2018-11-05T22:03:26.050Z,9.73
2018-11-05T22:08:29.222Z,10.87
2018-11-05T22:13:32.434Z,8.80
2018-11-05T22:18:35.628Z,12.37
2018-11-05T22:23:38.835Z,12.03
2018-11-05T22:28:42.044Z,9.97
2018-11-05T22:33:45.265Z,10.67
2018-11-05T22:38:48.495Z,9.70
2018-11-05T22:43:51.729Z,10.87
2018-11-05T22:48:54.944Z,8.97
2018-11-05T22:53:58.139Z,10.10
2018-11-05T22:59:01.339Z,11.07
2018-11-05T23:04:04.961Z,10.20
2018-11-05T23:09:08.236Z,8.70
2018-11-05T23:14:11.440Z,11.00
2018-11-05T23:19:14.699Z,10.63
2018-11-05T23:24:17.917Z,9.00
2018-11-05T23:29:21.141Z,9.00
2018-11-05T23:34:24.359Z,9.20
2018-11-05T23:39:27.547Z,9.70
2018-11-05T23:44:30.751Z,10.53
2018-11-05T23:49:33.969Z,9.40
2018-11-05T23:54:37.229Z,9.23
2018-11-05T23:59:40.452Z,9.00
